Loretto, Virginia
Current Conditions -  °F | °C
As of 11:15 PM on Sunday 25 Jan 2015 (Local Time) from KXSA Reporting Station
Clear Clear  
Wind Chill: 40°   Ceiling: Unl
Heat Index: 40°   Visibility: 10mi
Dew Point: 31°   Wind: 3mph
Humidity: 68%   Direction: 130°SE
Pressure: 29.87"   Gusts: NA
Location:  38.08°N, 77.05°W
Report Text: KXSA 260415Z AUTO 13003KT 10SM CLR 05/M01 A2987 RMK AO2 T00471007
Loading
Personal Weather Stations






























Interactive Weather Map New forecast layout! Learn more

10-Day Weather Forecast

Advertisements
Track Severe Weather on mobile